METAR Data
IDs: Format: Raw Decoded Include TAF

Data at: 2137 UTC 18 Apr 2021

KTMB 182053Z 20010KT 10SM FEW045 32/21 A2988 RMK AO2 SLP118 T03170206 56013
KTMB 181953Z 24007KT 200V270 10SM CLR 33/20 A2989 RMK AO2 SLP119 T03280200
KTMB 181853Z 24008G16KT 10SM SCT060 33/18 A2990 RMK AO2 SLP124 T03330178
KTMB 181753Z 25010G19KT 230V290 10SM CLR 33/19 A2992 RMK AO2 SLP131 60000 T03330189 10333 20244 58020
KTMB 181653Z 21006KT 10SM FEW038 SCT050 31/21 A2994 RMK AO2 SLP136 T03110206
KTMB 181553Z 22008KT 10SM SCT036 BKN050 BKN065 30/21 A2997 RMK AO2 SLP146 T03000206
KTMB 181453Z 17006KT 10SM CLR 29/22 A2998 RMK AO2 RAE09 SLP151 P0000 60000 T02890217 50002
KTMB 181353Z 17005KT 10SM -RA FEW023 BKN034 OVC048 27/22 A2999 RMK AO2 RAB48 SLP154 P0000 T02670217
KTMB 181253Z 00000KT 10SM FEW045 OVC065 27/21 A2997 RMK AO2 SLP149 T02670206
KTMB 181153Z 00000KT 10SM SCT038 24/21 A2997 RMK AO2 SLP149 T02440206 10244 20228 53013
KTMB 181053Z 00000KT 10SM FEW039 SCT060 24/19 A2996 RMK AO2 SLP143 T02390194
KTMB 180953Z AUTO 00000KT 10SM OVC040 24/20 A2995 RMK AO2 SLP140 T02390200
KTMB 180853Z AUTO 00000KT 10SM BKN040 BKN050 23/20 A2994 RMK AO2 SLP137 T02330200 58000
KTMB 180753Z AUTO 23003KT 10SM BKN039 OVC050 23/20 A2994 RMK AO2 SLP137 T02330200
KTMB 180653Z AUTO 21004KT 10SM CLR 23/19 A2994 RMK AO2 SLP137 T02280194
KTMB 180553Z AUTO 20004KT 10SM CLR 23/19 A2994 RMK AO2 SLP137 T02280194 10267 20222 51007
KTMB 180453Z AUTO 19004KT 10SM CLR 23/19 A2993 RMK AO2 SLP136 T02330194 403280211
KTMB 180353Z AUTO 20003KT 10SM CLR 24/19 A2993 RMK AO2 SLP133 T02390194
KTMB 180253Z AUTO 26003KT 10SM CLR 23/19 A2992 RMK AO2 SLP130 LAST T02330194 51014
KTMB 180153Z 26005KT 10SM CLR 24/18 A2991 RMK AO2 SLP128 T02390183
KTMB 180053Z 27006KT 10SM CLR 25/19 A2989 RMK AO2 SLP121 T02500194
KTMB 172353Z 27008KT 10SM CLR 27/19 A2988 RMK AO2 SLP117 60000 T02670189 10328 20267 53005
KTMB 172253Z 25013KT 10SM CLR 29/18 A2987 RMK AO2 SLP114 T02940183
KTMB 172153Z 25014KT 10SM FEW046 31/18 A2986 RMK AO2 RAB18E28 SLP111 P0000 T03060183
KTMB 172053Z 26011G23KT 10SM FEW045 32/18 A2986 RMK AO2 RAB11E20 SLP112 P0000 60000 T03170183 56013
KTMB 171953Z 25012G20KT 10SM FEW046 32/18 A2987 RMK AO2 PK WND 26026/1928 RAB1856E39 SLP115 P0000 T03220183
KTMB 171853Z 26016G21KT 10SM CLR 32/18 A2989 RMK AO2 RAB23E48 SLP120 P0000 T03220183
KTMB 171753Z 26015G21KT 10SM CLR 32/18 A2990 RMK AO2 SLP124 T03220183 10328 20228 58017
KTMB 171653Z 25009KT 10SM FEW044 32/19 A2992 RMK AO2 SLP131 T03170189
KTMB 171553Z 28012G16KT 10SM FEW041 31/19 A2995 RMK AO2 SLP140 T03060194
KTMB 171453Z 24010KT 10SM FEW025 FEW032 29/19 A2995 RMK AO2 SLP141 T02940194 53015
KTMB 171412Z 25010KT 10SM FEW019 SCT027 28/21 A2993 RMK AO2 T02780206
KTMB 171404Z 26008KT 10SM SCT019 BKN027 28/21 A2993 RMK AO2 T02780211
KTMB 171353Z 24010KT 10SM SCT020 28/21 A2993 RMK AO2 SLP134 T02780211
KTMB 171253Z 23005KT 10SM SCT024 26/22 A2991 RMK AO2 SLP128 T02560217
KTMB 171242Z 22006KT 10SM SCT021 26/22 A2991 RMK AO2 T02560217
KTMB 171227Z 21004KT 5SM HZ BKN021 24/21 A2991 RMK AO2 T02440211
KTMB 171153Z 00000KT 8SM CLR 23/21 A2990 RMK AO2 SLP126 T02280206 10233 20211 53015
KTMB 171053Z 00000KT 10SM CLR 22/19 A2989 RMK AO2 SLP119 T02220194
KTMB 170953Z 00000KT 10SM CLR 22/19 A2988 RMK AO2 SLP116 T02220194